createdAt,value
2023-06-02T00:01:34.308Z,71.13
2023-06-02T00:04:04.800Z,70.74
2023-06-02T00:06:35.433Z,70.84
2023-06-02T00:09:06.132Z,70.73
2023-06-02T00:11:36.449Z,70.85
2023-06-02T00:14:05.168Z,71.06
2023-06-02T00:16:35.213Z,70.96
2023-06-02T00:19:01.840Z,71.37
2023-06-02T00:21:29.022Z,71.34
2023-06-02T00:23:55.827Z,71.34
2023-06-02T00:26:26.482Z,71.44
2023-06-02T00:28:56.919Z,71.63
2023-06-02T00:31:24.076Z,71.49
2023-06-02T00:33:50.879Z,71.44
2023-06-02T00:36:17.607Z,71.25
2023-06-02T00:38:44.331Z,71.48
2023-06-02T00:41:11.340Z,71.41
2023-06-02T00:43:38.096Z,71.43
2023-06-02T00:46:04.883Z,71.53
2023-06-02T00:48:31.740Z,71.63
2023-06-02T00:50:58.492Z,71.29
2023-06-02T00:53:25.427Z,71.34
2023-06-02T00:55:54.204Z,71.36
2023-06-02T00:58:21.189Z,71.41
2023-06-02T01:00:48.366Z,71.67
2023-06-02T01:03:16.017Z,71.55
2023-06-02T01:05:48.150Z,71.81
2023-06-02T01:08:17.337Z,71.98
2023-06-02T01:10:44.775Z,72.42
2023-06-02T01:13:12.341Z,72.54
2023-06-02T01:15:39.092Z,72.70
2023-06-02T01:18:10.872Z,72.92
2023-06-02T01:20:45.541Z,72.84
2023-06-02T01:23:17.955Z,72.83
2023-06-02T01:25:45.550Z,72.90
2023-06-02T01:28:13.578Z,72.86
2023-06-02T01:30:40.680Z,72.83
2023-06-02T01:33:25.789Z,73.01
2023-06-02T01:36:00.226Z,73.36
2023-06-02T01:38:29.837Z,73.38
2023-06-02T01:41:04.430Z,73.48
2023-06-02T01:43:33.772Z,73.56
2023-06-02T01:46:02.851Z,73.42
2023-06-02T01:48:30.410Z,73.50
2023-06-02T01:50:57.213Z,73.45
2023-06-02T01:53:27.984Z,73.52
2023-06-02T01:55:55.804Z,73.76
2023-06-02T01:58:22.933Z,73.66
2023-06-02T02:00:49.653Z,73.71
2023-06-02T02:03:16.520Z,73.57
2023-06-02T02:05:44.571Z,73.81
2023-06-02T02:08:13.402Z,73.71
2023-06-02T02:10:40.481Z,73.93
2023-06-02T02:13:07.218Z,74.05
2023-06-02T02:15:34.262Z,73.91
2023-06-02T02:18:01.056Z,73.72
2023-06-02T02:20:28.211Z,74.11
2023-06-02T02:22:55.400Z,74.24
2023-06-02T02:25:22.336Z,74.61
2023-06-02T02:28:04.752Z,74.37
2023-06-02T02:30:31.733Z,74.47
2023-06-02T02:32:58.440Z,74.71
2023-06-02T02:35:25.205Z,74.78
2023-06-02T02:37:51.904Z,75.05
2023-06-02T02:40:18.724Z,74.88
2023-06-02T02:42:45.667Z,74.42
2023-06-02T02:45:12.562Z,74.26
2023-06-02T02:47:39.401Z,73.78
2023-06-02T02:50:06.600Z,73.76
2023-06-02T02:52:33.586Z,74.03
2023-06-02T02:55:00.922Z,74.17
2023-06-02T02:57:27.674Z,74.25
2023-06-02T02:59:54.439Z,74.52
2023-06-02T03:02:21.131Z,74.17
2023-06-02T03:04:48.074Z,74.16
2023-06-02T03:07:15.152Z,74.12
2023-06-02T03:09:42.338Z,74.10
2023-06-02T03:12:09.433Z,74.14
2023-06-02T03:14:36.714Z,74.26
2023-06-02T03:17:03.997Z,74.21
2023-06-02T03:19:31.012Z,74.01
2023-06-02T03:21:58.128Z,74.58
2023-06-02T03:24:25.530Z,74.78
2023-06-02T03:26:53.792Z,74.91
2023-06-02T03:29:21.241Z,74.88
2023-06-02T03:31:48.800Z,74.65
2023-06-02T03:34:15.689Z,73.63
2023-06-02T03:36:42.489Z,72.83
2023-06-02T03:39:09.421Z,71.52
2023-06-02T03:41:37.632Z,69.60
2023-06-02T03:44:05.026Z,68.10
2023-06-02T03:46:32.158Z,66.92
2023-06-02T03:48:59.178Z,65.82
2023-06-02T03:51:26.073Z,64.74
2023-06-02T03:53:52.824Z,64.19
2023-06-02T03:56:21.354Z,63.99
2023-06-02T03:58:49.245Z,63.16
2023-06-02T04:01:19.505Z,62.48
2023-06-02T04:03:46.596Z,61.68
2023-06-02T04:06:13.946Z,60.26
2023-06-02T04:08:40.977Z,60.05
2023-06-02T04:11:08.260Z,59.83
2023-06-02T04:13:35.282Z,59.09
2023-06-02T04:16:02.531Z,58.67
2023-06-02T04:18:31.550Z,58.32
2023-06-02T04:21:05.040Z,57.69
2023-06-02T04:23:31.768Z,57.49
2023-06-02T04:25:58.584Z,57.12
2023-06-02T04:28:25.489Z,56.03
2023-06-02T04:30:56.762Z,55.08
2023-06-02T04:33:24.739Z,54.57
2023-06-02T04:35:52.000Z,53.67
2023-06-02T04:38:19.431Z,53.52
2023-06-02T04:40:47.051Z,53.45
2023-06-02T04:43:13.827Z,52.96
2023-06-02T04:45:44.854Z,51.94
2023-06-02T04:48:12.654Z,52.20
2023-06-02T04:50:39.862Z,51.66
2023-06-02T04:53:07.161Z,50.74
2023-06-02T04:55:34.051Z,50.00
2023-06-02T04:58:00.871Z,49.26
2023-06-02T05:00:28.868Z,49.61
2023-06-02T05:02:56.676Z,49.85
2023-06-02T05:05:23.707Z,48.90
2023-06-02T05:07:50.494Z,48.81
2023-06-02T05:10:17.164Z,48.56
2023-06-02T05:12:44.833Z,48.06
2023-06-02T05:15:11.756Z,48.11
2023-06-02T05:17:38.657Z,47.67
2023-06-02T05:20:06.160Z,47.51
2023-06-02T05:22:32.932Z,47.30
2023-06-02T05:25:00.256Z,47.43
2023-06-02T05:27:27.045Z,47.10
2023-06-02T05:29:53.752Z,46.40
2023-06-02T05:32:23.955Z,46.98
2023-06-02T05:34:50.923Z,47.43
2023-06-02T05:37:17.663Z,46.92
2023-06-02T05:39:44.671Z,46.88
2023-06-02T05:42:11.507Z,45.77
2023-06-02T05:44:38.225Z,45.96
2023-06-02T05:47:06.368Z,46.12
2023-06-02T05:49:33.158Z,45.77
2023-06-02T05:52:00.829Z,45.94
2023-06-02T05:54:27.698Z,45.49
2023-06-02T05:56:55.682Z,44.57
2023-06-02T05:59:22.427Z,44.72
2023-06-02T06:01:49.153Z,43.47
2023-06-02T06:04:16.110Z,44.66
2023-06-02T06:06:42.781Z,44.84
2023-06-02T06:09:09.921Z,44.36
2023-06-02T06:11:37.521Z,44.34
2023-06-02T06:14:08.956Z,43.82
2023-06-02T06:16:35.900Z,43.52
2023-06-02T06:19:04.296Z,43.58
2023-06-02T06:21:31.083Z,43.26
2023-06-02T06:23:57.876Z,44.44
2023-06-02T06:26:24.675Z,44.53
2023-06-02T06:28:51.314Z,44.32
2023-06-02T06:31:18.211Z,43.57
2023-06-02T06:33:44.888Z,42.98
2023-06-02T06:36:12.395Z,43.47
2023-06-02T06:38:39.509Z,43.45
2023-06-02T06:41:06.356Z,42.61
2023-06-02T06:43:33.066Z,43.54
2023-06-02T06:46:03.191Z,43.78
2023-06-02T06:48:30.404Z,42.97
2023-06-02T06:50:57.297Z,43.45
2023-06-02T06:53:24.010Z,43.89
2023-06-02T06:55:51.124Z,43.22
2023-06-02T06:58:17.801Z,42.28
2023-06-02T07:00:44.660Z,41.79
2023-06-02T07:03:11.445Z,42.16
2023-06-02T07:05:38.260Z,42.29
2023-06-02T07:08:05.036Z,42.51
2023-06-02T07:10:31.726Z,41.37
2023-06-02T07:12:58.534Z,42.30
2023-06-02T07:15:25.369Z,42.78
2023-06-02T07:17:52.328Z,42.82
2023-06-02T07:20:19.092Z,42.82
2023-06-02T07:22:45.954Z,43.09
2023-06-02T07:25:13.028Z,42.58
2023-06-02T07:27:39.987Z,42.45
2023-06-02T07:30:08.740Z,41.98
2023-06-02T07:32:35.521Z,42.29
2023-06-02T07:35:02.263Z,42.97
2023-06-02T07:37:29.959Z,42.65
2023-06-02T07:39:56.640Z,42.42
2023-06-02T07:42:23.736Z,42.72
2023-06-02T07:44:50.671Z,41.48
2023-06-02T07:47:17.425Z,41.75
2023-06-02T07:49:45.007Z,42.48
2023-06-02T07:52:12.136Z,43.31
2023-06-02T07:54:38.886Z,43.07
2023-06-02T07:57:07.079Z,43.88
2023-06-02T07:59:33.723Z,43.97
2023-06-02T08:02:00.564Z,43.91
2023-06-02T08:04:28.702Z,43.65
2023-06-02T08:06:58.965Z,43.16
2023-06-02T08:09:25.751Z,42.06
2023-06-02T08:11:53.154Z,42.46
2023-06-02T08:14:25.791Z,42.97
2023-06-02T08:16:58.662Z,44.08
2023-06-02T08:19:27.369Z,42.59
2023-06-02T08:21:54.363Z,42.78
2023-06-02T08:24:26.587Z,42.39
2023-06-02T08:26:56.021Z,42.13
2023-06-02T08:29:23.471Z,43.02
2023-06-02T08:31:50.562Z,42.97
2023-06-02T08:34:21.815Z,43.27
2023-06-02T08:36:51.518Z,43.75
2023-06-02T08:39:19.049Z,43.09
2023-06-02T08:41:47.538Z,43.08
2023-06-02T08:44:15.163Z,42.87
2023-06-02T08:46:42.932Z,42.69
2023-06-02T08:49:09.992Z,42.43
2023-06-02T08:51:42.137Z,43.06
2023-06-02T08:54:12.125Z,43.47
2023-06-02T08:56:39.038Z,43.78
2023-06-02T08:59:05.943Z,44.15
2023-06-02T09:01:32.737Z,43.90
2023-06-02T09:03:59.677Z,43.83
2023-06-02T09:06:28.375Z,43.51
2023-06-02T09:09:03.438Z,42.60
2023-06-02T09:11:31.881Z,43.02
2023-06-02T09:14:00.619Z,43.41
2023-06-02T09:16:39.331Z,42.75
2023-06-02T09:19:06.381Z,42.21
2023-06-02T09:21:34.657Z,42.39
2023-06-02T09:24:13.442Z,42.74
2023-06-02T09:26:48.921Z,42.41
2023-06-02T09:29:16.359Z,44.16
2023-06-02T09:31:50.050Z,45.03
2023-06-02T09:34:18.721Z,45.64
2023-06-02T09:36:49.027Z,46.67
2023-06-02T09:39:15.970Z,45.19
2023-06-02T09:41:42.996Z,45.08
2023-06-02T09:44:16.672Z,43.95
2023-06-02T09:46:46.316Z,43.86
2023-06-02T09:49:13.426Z,43.92
2023-06-02T09:51:40.609Z,44.58
2023-06-02T09:54:08.794Z,45.51
2023-06-02T09:56:37.911Z,46.82
2023-06-02T09:59:06.638Z,47.55
2023-06-02T10:01:38.097Z,49.06
2023-06-02T10:04:07.247Z,48.51
2023-06-02T10:07:07.786Z,49.25
2023-06-02T10:09:49.542Z,49.27
2023-06-02T10:12:50.952Z,50.38
2023-06-02T10:15:48.996Z,48.18
2023-06-02T10:18:44.542Z,49.74
2023-06-02T10:21:39.037Z,50.28
2023-06-02T10:24:20.020Z,48.70
2023-06-02T10:27:05.325Z,50.01
2023-06-02T10:29:35.228Z,48.63
2023-06-02T10:32:34.854Z,48.58
2023-06-02T10:35:02.165Z,51.26
2023-06-02T10:37:29.043Z,51.10
2023-06-02T10:39:59.172Z,50.25
2023-06-02T10:42:27.875Z,49.89
2023-06-02T10:45:24.333Z,50.99
2023-06-02T10:47:51.447Z,50.61
2023-06-02T10:50:24.559Z,50.14
2023-06-02T10:53:00.590Z,48.87
2023-06-02T10:55:31.836Z,49.91
2023-06-02T10:58:06.409Z,49.71
2023-06-02T11:00:33.708Z,49.37
2023-06-02T11:03:01.395Z,50.94
2023-06-02T11:05:34.822Z,49.59
2023-06-02T11:08:14.332Z,49.57
2023-06-02T11:10:58.122Z,49.51
2023-06-02T11:13:26.601Z,49.70
2023-06-02T11:15:53.477Z,49.47
2023-06-02T11:18:23.045Z,50.04
2023-06-02T11:20:55.175Z,49.15
2023-06-02T11:23:22.480Z,48.95
2023-06-02T11:25:50.169Z,48.51
2023-06-02T11:28:22.812Z,48.74
2023-06-02T11:31:15.619Z,47.37
2023-06-02T11:33:44.312Z,46.87
2023-06-02T11:36:13.764Z,47.71
2023-06-02T11:38:41.264Z,46.89
2023-06-02T11:41:12.465Z,47.98
2023-06-02T11:43:40.184Z,48.26
2023-06-02T11:46:12.036Z,48.51
2023-06-02T11:48:40.058Z,46.61
2023-06-02T11:51:08.142Z,45.56
2023-06-02T11:53:36.196Z,44.63
2023-06-02T11:56:03.236Z,45.50
2023-06-02T11:58:31.329Z,45.60
2023-06-02T12:01:09.676Z,44.62
2023-06-02T12:03:38.140Z,44.22
2023-06-02T12:06:16.145Z,44.13
2023-06-02T12:08:43.218Z,44.52
2023-06-02T12:11:22.162Z,44.65
2023-06-02T12:14:04.026Z,44.68
2023-06-02T12:16:31.239Z,44.47
2023-06-02T12:19:17.511Z,44.01
2023-06-02T12:21:47.476Z,43.77
2023-06-02T12:24:31.098Z,44.66
2023-06-02T12:26:58.080Z,43.67
2023-06-02T12:29:25.701Z,44.38
2023-06-02T12:32:08.516Z,44.50
2023-06-02T12:34:36.160Z,44.27
2023-06-02T12:37:04.257Z,43.70
2023-06-02T12:39:31.860Z,43.25
2023-06-02T12:41:58.771Z,42.31
2023-06-02T12:44:29.013Z,41.87
2023-06-02T12:46:56.292Z,42.06
2023-06-02T12:49:23.126Z,41.71
2023-06-02T12:51:49.854Z,40.93
2023-06-02T12:54:16.584Z,40.11
2023-06-02T12:56:44.756Z,40.88
2023-06-02T12:59:14.049Z,41.62
2023-06-02T13:01:41.602Z,42.84
2023-06-02T13:04:09.001Z,43.46
2023-06-02T13:06:38.431Z,43.08
2023-06-02T13:09:06.457Z,43.58
2023-06-02T13:11:33.382Z,42.94
2023-06-02T13:14:00.107Z,43.09
2023-06-02T13:16:27.189Z,43.52
2023-06-02T13:18:54.442Z,45.06
2023-06-02T13:21:21.406Z,45.29
2023-06-02T13:23:55.129Z,45.09
2023-06-02T13:26:22.374Z,45.12
2023-06-02T13:28:49.387Z,44.82
2023-06-02T13:31:16.443Z,44.80
2023-06-02T13:33:43.543Z,44.75
2023-06-02T13:36:10.297Z,44.41
2023-06-02T13:38:37.168Z,44.44
2023-06-02T13:41:04.247Z,45.61
2023-06-02T13:43:31.109Z,46.41
2023-06-02T13:45:57.908Z,47.25
2023-06-02T13:48:24.773Z,47.49
2023-06-02T13:50:51.474Z,47.32
2023-06-02T13:53:18.348Z,47.71
2023-06-02T13:55:45.079Z,47.85
2023-06-02T13:58:13.800Z,47.60
2023-06-02T14:00:42.566Z,48.58
2023-06-02T14:03:09.591Z,49.05
2023-06-02T14:05:36.546Z,49.26
2023-06-02T14:08:03.595Z,49.30
2023-06-02T14:10:30.342Z,48.60
2023-06-02T14:12:57.207Z,48.76
2023-06-02T14:15:24.060Z,48.45
2023-06-02T14:17:51.640Z,48.55
2023-06-02T14:20:20.138Z,48.58
2023-06-02T14:22:47.014Z,49.23
2023-06-02T14:25:13.764Z,50.00
2023-06-02T14:27:40.938Z,49.31
2023-06-02T14:30:08.407Z,49.40
2023-06-02T14:32:35.214Z,49.97
2023-06-02T14:35:02.035Z,50.16
2023-06-02T14:37:28.774Z,51.21
2023-06-02T14:39:56.794Z,53.11
2023-06-02T14:42:23.772Z,53.98
2023-06-02T14:44:50.507Z,55.31
2023-06-02T14:47:17.465Z,56.04
2023-06-02T14:49:44.230Z,56.11
2023-06-02T14:52:10.959Z,55.81
2023-06-02T14:54:39.826Z,55.74
2023-06-02T14:57:06.934Z,55.33
2023-06-02T14:59:33.735Z,55.69
2023-06-02T15:02:00.409Z,54.70
2023-06-02T15:04:27.390Z,55.19
2023-06-02T15:06:54.113Z,55.20
2023-06-02T15:09:21.161Z,55.16
2023-06-02T15:11:47.981Z,55.14
2023-06-02T15:14:14.757Z,54.70
2023-06-02T15:16:41.524Z,54.88
2023-06-02T15:19:09.752Z,54.81
2023-06-02T15:21:37.355Z,55.14
2023-06-02T15:24:04.668Z,54.42
2023-06-02T15:26:31.405Z,54.51
2023-06-02T15:28:58.235Z,55.21
2023-06-02T15:31:25.053Z,54.98
2023-06-02T15:33:51.910Z,54.84
2023-06-02T15:36:20.601Z,54.44
2023-06-02T15:38:47.379Z,55.11
2023-06-02T15:41:14.058Z,55.66
2023-06-02T15:43:42.390Z,55.84
2023-06-02T15:46:09.219Z,56.23
2023-06-02T15:48:38.288Z,56.63
2023-06-02T15:51:06.107Z,56.59
2023-06-02T15:53:32.867Z,56.82
2023-06-02T15:55:59.668Z,56.65
2023-06-02T15:58:27.346Z,56.25
2023-06-02T16:00:54.154Z,56.23
2023-06-02T16:03:21.108Z,55.99
2023-06-02T16:05:47.882Z,56.17
2023-06-02T16:08:14.722Z,56.78
2023-06-02T16:10:41.737Z,57.47
2023-06-02T16:13:08.404Z,57.39
2023-06-02T16:15:35.397Z,57.48
2023-06-02T16:18:02.207Z,57.79
2023-06-02T16:20:29.156Z,57.99
2023-06-02T16:22:55.848Z,58.27
2023-06-02T16:25:24.963Z,58.68
2023-06-02T16:27:52.494Z,58.59
2023-06-02T16:30:19.287Z,58.71
2023-06-02T16:32:46.371Z,58.93
2023-06-02T16:35:13.283Z,59.02
2023-06-02T16:37:40.010Z,59.17
2023-06-02T16:40:07.547Z,59.73
2023-06-02T16:42:35.751Z,60.93
2023-06-02T16:45:02.648Z,61.60
2023-06-02T16:47:29.514Z,62.55
2023-06-02T16:49:56.309Z,63.25
2023-06-02T16:52:23.117Z,63.53
2023-06-02T16:54:49.798Z,63.66
2023-06-02T16:57:16.621Z,64.57
2023-06-02T16:59:43.407Z,65.16
2023-06-02T17:02:10.543Z,65.78
2023-06-02T17:04:37.289Z,66.57
2023-06-02T17:07:06.136Z,67.44
2023-06-02T17:09:32.942Z,68.04
2023-06-02T17:11:59.651Z,68.84
2023-06-02T17:14:26.416Z,68.74
2023-06-02T17:16:53.126Z,69.02
2023-06-02T17:19:20.928Z,68.52
2023-06-02T17:21:48.999Z,69.14
2023-06-02T17:24:16.276Z,69.01
2023-06-02T17:26:44.021Z,69.49
2023-06-02T17:29:11.138Z,69.41
2023-06-02T17:31:37.898Z,69.32
2023-06-02T17:34:04.640Z,68.92
2023-06-02T17:36:31.475Z,69.06
2023-06-02T17:38:58.606Z,69.32
2023-06-02T17:41:25.390Z,69.49
2023-06-02T17:43:52.822Z,69.78
2023-06-02T17:46:19.940Z,69.97
2023-06-02T17:48:46.936Z,69.79
2023-06-02T17:51:13.806Z,69.73
2023-06-02T17:53:43.435Z,69.59
2023-06-02T17:56:11.284Z,69.58
2023-06-02T17:58:38.176Z,69.98
2023-06-02T18:01:05.598Z,69.69
2023-06-02T18:03:33.873Z,69.47
2023-06-02T18:06:00.753Z,69.21
2023-06-02T18:08:27.600Z,69.56
2023-06-02T18:10:54.390Z,69.86
2023-06-02T18:13:21.670Z,69.94
2023-06-02T18:15:48.441Z,69.94
2023-06-02T18:18:15.348Z,69.70
2023-06-02T18:20:42.366Z,69.53
2023-06-02T18:23:09.776Z,69.66
2023-06-02T18:25:36.556Z,69.59
2023-06-02T18:28:03.252Z,69.23
2023-06-02T18:30:31.538Z,69.39
2023-06-02T18:32:58.411Z,69.36
2023-06-02T18:35:25.502Z,69.02
2023-06-02T18:37:52.317Z,69.07
2023-06-02T18:40:19.193Z,68.83
2023-06-02T18:42:46.049Z,68.97
2023-06-02T18:45:12.856Z,69.32
2023-06-02T18:47:39.708Z,69.28
2023-06-02T18:50:07.769Z,69.15
2023-06-02T18:52:35.720Z,69.04
2023-06-02T18:55:02.834Z,69.00
2023-06-02T18:57:29.558Z,68.44
2023-06-02T18:59:56.354Z,68.90
2023-06-02T19:02:23.247Z,68.58
2023-06-02T19:04:52.785Z,68.59
2023-06-02T19:07:20.629Z,68.87
2023-06-02T19:09:47.318Z,68.64
2023-06-02T19:12:14.287Z,68.91
2023-06-02T19:14:41.286Z,68.55
2023-06-02T19:17:09.675Z,68.46
2023-06-02T19:19:36.528Z,68.19
2023-06-02T19:22:03.333Z,67.83
2023-06-02T19:24:30.085Z,67.46
2023-06-02T19:26:56.874Z,67.54
2023-06-02T19:29:24.775Z,67.90
2023-06-02T19:31:51.618Z,67.80
2023-06-02T19:34:20.155Z,67.87
2023-06-02T19:36:46.957Z,67.75
2023-06-02T19:39:13.676Z,67.65
2023-06-02T19:41:40.603Z,67.99
2023-06-02T19:44:09.834Z,68.12
2023-06-02T19:46:39.166Z,68.16
2023-06-02T19:49:08.096Z,67.92
2023-06-02T19:51:34.908Z,67.73
2023-06-02T19:54:02.046Z,67.80
2023-06-02T19:56:35.221Z,68.06
2023-06-02T19:59:02.001Z,68.24
2023-06-02T20:01:28.817Z,68.36
2023-06-02T20:03:55.865Z,68.81
2023-06-02T20:06:22.580Z,68.90
2023-06-02T20:08:49.637Z,68.82
2023-06-02T20:11:16.378Z,69.00
2023-06-02T20:13:43.141Z,69.09
2023-06-02T20:16:09.915Z,68.94
2023-06-02T20:18:38.494Z,69.04
2023-06-02T20:21:06.306Z,69.65
2023-06-02T20:23:33.540Z,69.17
2023-06-02T20:26:00.978Z,69.25
2023-06-02T20:28:27.805Z,69.23
2023-06-02T20:30:54.603Z,69.05
2023-06-02T20:33:21.615Z,69.49
2023-06-02T20:35:48.436Z,69.58
2023-06-02T20:38:15.296Z,69.72
2023-06-02T20:40:42.095Z,69.87
2023-06-02T20:43:08.988Z,70.18
2023-06-02T20:45:35.913Z,70.69
2023-06-02T20:48:05.063Z,71.04
2023-06-02T20:50:31.764Z,71.10
2023-06-02T20:52:58.632Z,71.49
2023-06-02T20:55:25.394Z,71.50
2023-06-02T20:57:52.075Z,71.60
2023-06-02T21:00:19.305Z,71.73
2023-06-02T21:02:46.285Z,71.89
2023-06-02T21:05:13.085Z,72.17
2023-06-02T21:07:39.956Z,72.32
2023-06-02T21:10:07.122Z,72.57
2023-06-02T21:12:33.911Z,72.91
2023-06-02T21:15:02.900Z,73.16
2023-06-02T21:17:29.666Z,73.56
2023-06-02T21:19:56.364Z,73.84
2023-06-02T21:22:23.154Z,73.90
2023-06-02T21:24:50.985Z,74.06
2023-06-02T21:27:17.829Z,74.25
2023-06-02T21:29:44.708Z,74.49
2023-06-02T21:32:11.602Z,74.32
2023-06-02T21:34:38.546Z,74.63
2023-06-02T21:37:05.970Z,74.71
2023-06-02T21:39:32.951Z,74.78
2023-06-02T21:42:00.009Z,74.73
2023-06-02T21:44:27.019Z,74.77
2023-06-02T21:46:53.798Z,75.12
2023-06-02T21:49:20.742Z,75.11
2023-06-02T21:51:47.495Z,75.25
2023-06-02T21:54:14.249Z,75.56
2023-06-02T21:56:41.239Z,76.01
2023-06-02T21:59:08.067Z,76.30
2023-06-02T22:01:34.905Z,76.52
2023-06-02T22:04:01.971Z,76.62
2023-06-02T22:06:30.028Z,76.93
2023-06-02T22:08:57.109Z,76.83
2023-06-02T22:11:27.138Z,76.43
2023-06-02T22:13:53.875Z,76.08
2023-06-02T22:16:21.201Z,76.02
2023-06-02T22:18:48.180Z,76.06
2023-06-02T22:21:16.379Z,75.65
2023-06-02T22:23:44.766Z,75.64
2023-06-02T22:26:11.853Z,75.94
2023-06-02T22:28:38.621Z,76.08
2023-06-02T22:31:05.572Z,75.93
2023-06-02T22:33:32.673Z,76.21
2023-06-02T22:35:59.604Z,76.22
2023-06-02T22:38:26.362Z,76.34
2023-06-02T22:40:53.193Z,76.34
2023-06-02T22:43:19.926Z,76.26
2023-06-02T22:45:46.888Z,76.47
2023-06-02T22:48:13.923Z,76.37
2023-06-02T22:50:40.660Z,76.50
2023-06-02T22:53:07.462Z,76.78
2023-06-02T22:55:34.244Z,76.61
2023-06-02T22:58:00.939Z,76.58
2023-06-02T23:00:27.769Z,76.39
2023-06-02T23:02:54.934Z,76.15
2023-06-02T23:05:21.692Z,76.00
2023-06-02T23:07:48.383Z,76.58
2023-06-02T23:10:16.356Z,77.17
2023-06-02T23:12:44.551Z,76.69
2023-06-02T23:15:11.772Z,76.45
2023-06-02T23:17:38.640Z,76.90
2023-06-02T23:20:09.521Z,77.00
2023-06-02T23:22:36.474Z,77.17
2023-06-02T23:25:03.898Z,76.97
2023-06-02T23:27:31.629Z,76.71
2023-06-02T23:29:58.949Z,76.94
2023-06-02T23:32:26.249Z,77.40
2023-06-02T23:34:55.195Z,77.63
2023-06-02T23:37:25.844Z,77.55
2023-06-02T23:39:53.675Z,77.18
2023-06-02T23:42:20.348Z,77.55
2023-06-02T23:44:47.136Z,77.27
2023-06-02T23:47:18.200Z,77.24
2023-06-02T23:49:48.716Z,77.58
2023-06-02T23:52:16.349Z,78.02
2023-06-02T23:54:43.619Z,78.51
2023-06-02T23:57:10.461Z,78.55
2023-06-02T23:59:37.300Z,78.20
